Time;durP1;ratioP1;P1;durP2;ratioP2;P2;SDS_P1;SDS_P2;PMS_P1;PMS_P2;Temp;Humidity;BMP_temperature;BMP_pressure;BME280_temperature;BME280_humidity;BME280_pressure;Samples;Min_cycle;Max_cycle;Signal;HPM_P1;HPM_P2
2022/02/20 00:00:43;;;;;;;19.85;3.55;;;7.90;99.90;;;;;;5072896;28;20495;-55
2022/02/20 00:03:09;;;;;;;13.10;2.45;;;7.80;99.90;;;;;;5073123;28;20028;-54
2022/02/20 00:05:36;;;;;;;14.05;2.10;;;7.80;99.90;;;;;;5073406;28;20028;-55
2022/02/20 00:08:02;;;;;;;16.17;2.15;;;7.90;99.90;;;;;;5073321;28;20020;-54
2022/02/20 00:10:28;;;;;;;11.05;2.05;;;7.80;99.90;;;;;;5073105;28;20047;-55
2022/02/20 00:12:53;;;;;;;15.05;2.10;;;7.80;99.90;;;;;;5073067;28;20383;-55
2022/02/20 00:15:19;;;;;;;13.73;2.40;;;7.80;99.90;;;;;;5073118;28;20473;-54
2022/02/20 00:17:48;;;;;;;12.73;1.83;;;7.80;99.90;;;;;;5073293;28;20482;-54
2022/02/20 00:20:14;;;;;;;16.23;1.90;;;7.70;99.90;;;;;;5073194;28;20024;-55
2022/02/20 00:22:40;;;;;;;13.02;1.63;;;7.70;99.90;;;;;;5072463;28;20016;-55
2022/02/20 00:25:06;;;;;;;11.38;1.75;;;7.70;99.90;;;;;;5073150;28;20075;-55
2022/02/20 00:27:32;;;;;;;11.75;2.10;;;7.70;99.90;;;;;;5072993;28;20016;-55
2022/02/20 00:29:57;;;;;;;11.07;1.90;;;7.70;99.90;;;;;;5072394;28;20085;-54
2022/02/20 00:32:23;;;;;;;9.50;1.83;;;7.70;99.90;;;;;;5073065;28;20040;-54
2022/02/20 00:34:48;;;;;;;13.02;2.10;;;7.60;99.90;;;;;;5072783;28;20021;-54
2022/02/20 00:37:14;;;;;;;11.23;2.30;;;7.60;99.90;;;;;;5072826;28;20115;-55
2022/02/20 00:39:39;;;;;;;14.20;3.17;;;7.50;99.90;;;;;;5072521;28;20025;-55
2022/02/20 00:42:05;;;;;;;13.55;2.15;;;7.40;99.90;;;;;;5072832;28;20481;-54
2022/02/20 00:44:31;;;;;;;13.32;2.13;;;7.40;99.90;;;;;;5073342;28;20603;-54
2022/02/20 00:46:57;;;;;;;10.30;2.08;;;7.40;99.90;;;;;;5073188;28;20063;-55
2022/02/20 00:49:22;;;;;;;10.95;2.35;;;7.40;99.90;;;;;;5071327;28;20029;-54
2022/02/20 00:51:48;;;;;;;6.63;1.67;;;7.40;99.90;;;;;;5073056;28;20447;-54
2022/02/20 00:54:13;;;;;;;9.73;1.83;;;7.30;99.90;;;;;;5072927;28;20013;-55
2022/02/20 00:56:39;;;;;;;8.60;1.83;;;7.30;99.90;;;;;;5073240;28;20032;-55
2022/02/20 00:59:05;;;;;;;15.07;2.47;;;7.30;99.90;;;;;;5072307;28;20032;-55
2022/02/20 01:01:32;;;;;;;8.95;1.67;;;7.20;99.90;;;;;;5072384;28;20028;-54
2022/02/20 01:03:59;;;;;;;12.00;2.30;;;7.10;99.90;;;;;;5072716;28;20052;-54
2022/02/20 01:06:25;;;;;;;13.73;1.65;;;7.10;99.90;;;;;;5072189;28;20475;-55
2022/02/20 01:08:51;;;;;;;10.40;2.20;;;7.10;99.90;;;;;;5072257;28;20038;-54
2022/02/20 01:11:17;;;;;;;10.45;2.40;;;7.00;99.90;;;;;;5072502;28;20013;-55
2022/02/20 01:13:43;;;;;;;13.57;2.10;;;7.00;99.90;;;;;;5072317;28;20042;-55
2022/02/20 01:16:10;;;;;;;13.07;2.50;;;7.00;99.90;;;;;;5071859;28;20024;-60
2022/02/20 01:18:35;;;;;;;13.95;2.50;;;6.90;99.90;;;;;;5072020;28;20063;-55
2022/02/20 01:21:01;;;;;;;13.48;1.70;;;6.90;99.90;;;;;;5071727;28;20469;-55
2022/02/20 01:23:27;;;;;;;18.45;2.53;;;6.80;99.90;;;;;;5072528;28;20481;-55
2022/02/20 01:25:53;;;;;;;10.80;2.63;;;6.80;99.90;;;;;;5072387;28;20513;-55
2022/02/20 01:28:19;;;;;;;15.77;2.28;;;6.80;99.90;;;;;;5071611;28;20024;-55
2022/02/20 01:30:44;;;;;;;22.13;2.90;;;6.80;99.90;;;;;;5071659;28;20045;-55
2022/02/20 01:33:10;;;;;;;15.07;2.58;;;6.70;99.90;;;;;;5071878;28;20077;-55
2022/02/20 01:35:36;;;;;;;12.25;2.60;;;6.80;99.90;;;;;;5072431;28;20040;-54
2022/02/20 01:38:01;;;;;;;15.68;2.92;;;6.80;99.90;;;;;;5072422;28;20020;-55
2022/02/20 01:40:30;;;;;;;19.48;3.53;;;6.90;99.90;;;;;;5071946;28;20029;-54
2022/02/20 01:42:57;;;;;;;16.42;2.80;;;6.90;99.90;;;;;;5072252;28;20055;-54
2022/02/20 01:45:23;;;;;;;22.73;2.97;;;6.80;99.90;;;;;;5072181;28;20355;-54
2022/02/20 01:47:49;;;;;;;16.17;2.88;;;6.80;99.90;;;;;;5071251;28;20546;-55
2022/02/20 01:50:16;;;;;;;15.07;2.78;;;6.80;99.90;;;;;;5072194;28;20044;-55
2022/02/20 01:52:42;;;;;;;20.70;2.95;;;6.70;99.90;;;;;;5070504;28;20490;-55
2022/02/20 01:55:09;;;;;;;14.48;3.50;;;6.70;99.90;;;;;;5071552;28;20029;-55
2022/02/20 01:57:39;;;;;;;17.45;3.53;;;6.70;99.90;;;;;;5070542;28;20485;-54
2022/02/20 02:00:10;;;;;;;17.67;3.22;;;6.70;99.90;;;;;;5070104;28;20027;-54
2022/02/20 02:02:36;;;;;;;17.65;3.72;;;6.70;99.90;;;;;;5070549;28;20102;-55
2022/02/20 02:05:03;;;;;;;29.45;4.80;;;6.70;99.90;;;;;;5069372;28;20095;-55
2022/02/20 02:07:29;;;;;;;17.23;3.50;;;6.70;99.90;;;;;;5070953;28;20478;-54
2022/02/20 02:09:54;;;;;;;21.90;3.63;;;6.70;99.90;;;;;;5071873;28;20029;-55
2022/02/20 02:12:20;;;;;;;22.42;3.20;;;6.70;99.90;;;;;;5071621;28;20035;-54
2022/02/20 02:14:52;;;;;;;20.33;3.78;;;6.80;99.90;;;;;;5071344;28;20032;-54
2022/02/20 02:17:17;;;;;;;28.80;4.72;;;6.80;99.90;;;;;;5071314;28;20031;-55
2022/02/20 02:19:43;;;;;;;26.13;4.00;;;6.90;99.90;;;;;;5073467;28;20490;-54
2022/02/20 02:22:08;;;;;;;24.67;4.43;;;7.00;99.90;;;;;;5074531;28;20024;-55
2022/02/20 02:24:34;;;;;;;20.25;3.95;;;7.00;99.90;;;;;;5075376;28;20023;-54
2022/02/20 02:27:02;;;;;;;29.33;4.82;;;7.00;99.90;;;;;;5075064;28;20116;-55
2022/02/20 02:29:27;;;;;;;30.10;4.60;;;7.00;99.90;;;;;;5074804;28;20135;-55
2022/02/20 02:31:53;;;;;;;28.33;4.00;;;7.10;99.90;;;;;;5074577;28;20064;-55
2022/02/20 02:34:20;;;;;;;33.67;4.45;;;7.20;99.90;;;;;;5075461;28;20476;-55
2022/02/20 02:36:52;;;;;;;28.65;4.53;;;7.30;99.90;;;;;;5075282;28;20024;-55
2022/02/20 02:39:18;;;;;;;26.23;4.20;;;7.30;99.90;;;;;;5074006;28;20101;-55
2022/02/20 02:41:44;;;;;;;34.17;5.80;;;7.40;99.90;;;;;;5074915;28;20037;-56
2022/02/20 02:44:10;;;;;;;32.22;5.18;;;7.50;99.90;;;;;;5074784;28;20017;-55
2022/02/20 02:46:35;;;;;;;31.83;4.13;;;7.50;99.90;;;;;;5074796;28;20025;-55
2022/02/20 02:49:03;;;;;;;33.70;5.00;;;7.60;99.90;;;;;;5074411;28;20101;-56
2022/02/20 02:51:29;;;;;;;34.72;5.15;;;7.60;99.90;;;;;;5074855;28;20025;-55
2022/02/20 02:53:55;;;;;;;34.20;6.18;;;7.60;99.90;;;;;;5074755;28;20031;-55
2022/02/20 02:56:21;;;;;;;30.27;4.80;;;7.60;99.90;;;;;;5075131;28;20016;-54
2022/02/20 02:58:47;;;;;;;37.22;6.70;;;7.60;99.90;;;;;;5074107;28;20025;-55
2022/02/20 03:01:14;;;;;;;29.73;5.53;;;7.60;99.90;;;;;;5075114;28;20060;-55
2022/02/20 03:03:40;;;;;;;34.80;5.43;;;7.60;99.90;;;;;;5075200;28;20077;-55
2022/02/20 03:06:14;;;;;;;41.83;5.80;;;7.70;99.90;;;;;;5074608;28;20393;-55
2022/02/20 03:08:40;;;;;;;39.17;5.93;;;7.70;99.90;;;;;;5074927;28;20047;-56
2022/02/20 03:11:06;;;;;;;33.40;4.40;;;7.70;99.90;;;;;;5075404;28;20056;-55
2022/02/20 03:13:33;;;;;;;36.15;5.28;;;7.70;99.90;;;;;;5074666;28;20580;-55
2022/02/20 03:16:00;;;;;;;38.42;5.78;;;7.70;99.90;;;;;;5073646;28;20115;-55
2022/02/20 03:18:29;;;;;;;36.97;5.78;;;7.70;99.90;;;;;;5074793;28;20029;-56
2022/02/20 03:20:56;;;;;;;39.88;5.57;;;7.70;99.90;;;;;;5073463;28;20036;-55
2022/02/20 03:23:22;;;;;;;45.42;6.70;;;7.70;99.90;;;;;;5074758;28;20574;-55
2022/02/20 03:25:48;;;;;;;42.70;6.65;;;7.70;99.90;;;;;;5074531;28;20024;-55
2022/02/20 03:28:13;;;;;;;39.50;6.40;;;7.70;99.90;;;;;;5072578;28;20512;-55
2022/02/20 03:30:39;;;;;;;38.08;5.80;;;7.70;99.90;;;;;;5073858;28;20055;-55
2022/02/20 03:33:04;;;;;;;55.60;7.57;;;7.70;99.90;;;;;;5073439;28;20051;-55
2022/02/20 03:35:30;;;;;;;35.88;5.57;;;7.70;99.90;;;;;;5074159;28;20539;-55
2022/02/20 03:37:55;;;;;;;46.30;6.18;;;7.70;99.90;;;;;;5073570;28;20032;-55
2022/02/20 03:40:22;;;;;;;43.58;7.18;;;7.70;99.90;;;;;;5073882;28;20047;-55
2022/02/20 03:42:47;;;;;;;49.22;7.57;;;7.70;99.90;;;;;;5072968;28;20032;-55
2022/02/20 03:45:13;;;;;;;56.67;7.25;;;7.60;99.90;;;;;;5073485;28;20020;-55
2022/02/20 03:47:39;;;;;;;49.55;6.72;;;7.60;99.90;;;;;;5073024;28;20027;-55
2022/02/20 03:50:06;;;;;;;48.15;6.57;;;7.60;99.90;;;;;;5073261;28;20064;-55
2022/02/20 03:52:31;;;;;;;46.72;6.10;;;7.60;99.90;;;;;;5073132;28;20028;-55
2022/02/20 03:54:57;;;;;;;49.17;6.95;;;7.60;99.90;;;;;;5074041;28;20100;-55
2022/02/20 03:57:23;;;;;;;47.10;6.75;;;7.70;99.90;;;;;;5073111;28;20127;-55
2022/02/20 03:59:49;;;;;;;49.95;7.78;;;7.70;99.90;;;;;;5071817;28;20028;-55
2022/02/20 04:02:15;;;;;;;46.92;6.57;;;7.70;99.90;;;;;;5072022;28;20686;-55
2022/02/20 04:04:40;;;;;;;41.95;5.47;;;7.80;99.90;;;;;;5073471;28;20059;-55
2022/02/20 04:07:06;;;;;;;46.03;5.55;;;7.70;99.90;;;;;;5072956;28;20032;-55
2022/02/20 04:09:32;;;;;;;39.05;5.85;;;7.80;99.90;;;;;;5072736;28;20024;-55
2022/02/20 04:11:57;;;;;;;47.65;6.10;;;7.80;99.90;;;;;;5072192;28;20025;-55
2022/02/20 04:14:23;;;;;;;44.25;6.40;;;7.80;99.90;;;;;;5072709;28;20032;-56
2022/02/20 04:16:49;;;;;;;52.22;6.75;;;7.90;99.90;;;;;;5072667;28;20099;-56
2022/02/20 04:19:14;;;;;;;39.58;5.97;;;7.90;99.90;;;;;;5072536;28;20788;-54
2022/02/20 04:21:40;;;;;;;32.85;4.20;;;7.90;99.90;;;;;;5072032;28;20358;-54
2022/02/20 04:24:06;;;;;;;42.42;6.05;;;8.00;99.90;;;;;;5072200;28;20493;-55
2022/02/20 04:26:32;;;;;;;43.40;6.55;;;8.00;99.90;;;;;;5072787;28;20021;-54
2022/02/20 04:28:57;;;;;;;33.47;6.22;;;8.00;99.90;;;;;;5071962;28;20536;-55
2022/02/20 04:31:23;;;;;;;49.38;6.88;;;8.10;99.90;;;;;;5071671;28;20071;-54
2022/02/20 04:33:49;;;;;;;33.15;4.15;;;8.00;99.90;;;;;;5072237;28;20066;-55
2022/02/20 04:36:14;;;;;;;26.48;3.97;;;8.10;99.90;;;;;;5072311;28;20025;-54
2022/02/20 04:38:40;;;;;;;27.10;4.88;;;8.10;99.90;;;;;;5072469;28;20099;-54
2022/02/20 04:41:06;;;;;;;44.90;6.30;;;8.20;99.90;;;;;;5071694;28;20029;-54
2022/02/20 04:43:32;;;;;;;34.63;4.68;;;8.20;99.90;;;;;;5072778;28;20099;-54
2022/02/20 04:45:57;;;;;;;33.55;4.35;;;8.30;99.90;;;;;;5071890;28;20029;-54
2022/02/20 04:48:23;;;;;;;40.33;5.82;;;8.30;99.90;;;;;;5071881;28;20025;-55
2022/02/20 04:50:49;;;;;;;38.10;5.22;;;8.30;99.90;;;;;;5071706;28;20025;-54
2022/02/20 04:53:14;;;;;;;36.67;5.45;;;8.30;99.90;;;;;;5072097;28;20558;-54
2022/02/20 04:55:40;;;;;;;40.03;5.10;;;8.30;99.90;;;;;;5071878;28;20484;-54
2022/02/20 04:58:06;;;;;;;31.48;4.88;;;8.40;99.90;;;;;;5072208;28;20040;-54
2022/02/20 05:00:32;;;;;;;31.20;3.80;;;8.40;99.90;;;;;;5072463;28;20373;-55
2022/02/20 05:02:57;;;;;;;40.47;5.40;;;8.30;99.90;;;;;;5072109;28;20029;-55
2022/02/20 05:05:23;;;;;;;41.72;5.97;;;8.30;99.90;;;;;;5071956;28;20059;-55
2022/02/20 05:07:49;;;;;;;27.88;4.72;;;8.30;99.90;;;;;;5071946;28;20016;-55
2022/02/20 05:10:14;;;;;;;32.30;4.85;;;8.20;99.90;;;;;;5072493;28;20029;-55
2022/02/20 05:12:40;;;;;;;35.55;4.45;;;8.20;99.90;;;;;;5072752;28;20550;-55
2022/02/20 05:15:07;;;;;;;27.73;3.97;;;8.10;99.90;;;;;;5071751;28;20033;-56
2022/02/20 05:17:37;;;;;;;26.50;4.45;;;8.10;99.90;;;;;;5070489;28;20021;-55
2022/02/20 05:20:03;;;;;;;20.90;3.47;;;8.10;99.90;;;;;;5072098;28;20067;-55
2022/02/20 05:22:28;;;;;;;28.08;4.50;;;8.10;99.90;;;;;;5072015;28;20430;-55
2022/02/20 05:24:56;;;;;;;33.60;5.38;;;8.10;99.90;;;;;;5072098;28;20056;-55
2022/02/20 05:27:22;;;;;;;36.25;4.53;;;8.10;99.90;;;;;;5071715;28;20029;-55
2022/02/20 05:29:47;;;;;;;28.83;3.80;;;8.10;99.90;;;;;;5071405;28;20063;-55
2022/02/20 05:32:23;;;;;;;34.45;5.45;;;8.10;99.90;;;;;;5071162;28;20051;-55
2022/02/20 05:34:52;;;;;;;29.55;4.68;;;8.10;99.90;;;;;;5071373;28;20405;-55
2022/02/20 05:37:21;;;;;;;31.60;5.47;;;8.10;99.90;;;;;;5071099;28;20051;-55
2022/02/20 05:39:47;;;;;;;38.83;7.57;;;8.10;99.90;;;;;;5071565;28;20024;-55
2022/02/20 05:42:12;;;;;;;16.50;3.42;;;8.10;99.90;;;;;;5072107;28;20024;-55
2022/02/20 05:44:38;;;;;;;32.65;5.40;;;8.10;99.90;;;;;;5071788;28;20032;-55
2022/02/20 05:47:04;;;;;;;32.50;5.00;;;8.20;99.90;;;;;;5071637;28;20075;-55
2022/02/20 05:49:30;;;;;;;28.38;5.88;;;8.20;99.90;;;;;;5071522;28;20390;-55
2022/02/20 05:51:56;;;;;;;34.22;6.22;;;8.20;99.90;;;;;;5070345;28;20029;-55
2022/02/20 05:54:21;;;;;;;32.35;6.47;;;8.30;99.90;;;;;;5073937;28;20039;-55
2022/02/20 05:56:49;;;;;;;24.88;4.88;;;8.30;99.90;;;;;;5075331;28;20028;-55
2022/02/20 05:59:15;;;;;;;30.80;5.53;;;8.30;99.90;;;;;;5075297;28;20059;-55
2022/02/20 06:01:41;;;;;;;27.95;5.88;;;8.40;99.90;;;;;;5075457;28;20028;-56
2022/02/20 06:04:07;;;;;;;28.20;6.28;;;8.30;99.90;;;;;;5075721;28;20024;-55
2022/02/20 06:06:33;;;;;;;30.92;6.15;;;8.30;99.90;;;;;;5075565;28;20096;-55
2022/02/20 06:08:59;;;;;;;30.50;5.65;;;8.30;99.90;;;;;;5075002;28;20021;-56
2022/02/20 06:11:26;;;;;;;24.05;4.63;;;8.40;99.90;;;;;;5074897;28;20108;-56
2022/02/20 06:13:52;;;;;;;24.23;5.03;;;8.30;99.90;;;;;;5074896;28;20028;-55
2022/02/20 06:16:17;;;;;;;19.73;4.40;;;8.30;99.90;;;;;;5074523;28;20492;-56
2022/02/20 06:18:43;;;;;;;24.02;5.20;;;8.40;99.90;;;;;;5075026;28;20062;-56
2022/02/20 06:21:08;;;;;;;32.42;6.20;;;8.30;99.90;;;;;;5075483;28;20086;-56
2022/02/20 06:23:34;;;;;;;34.58;6.50;;;8.30;99.90;;;;;;5074933;28;20054;-55
2022/02/20 06:26:00;;;;;;;23.20;5.70;;;8.30;99.90;;;;;;5073986;28;20025;-56
2022/02/20 06:28:27;;;;;;;18.83;4.75;;;8.40;99.90;;;;;;5074822;28;20032;-55
2022/02/20 06:30:52;;;;;;;22.25;4.93;;;8.30;99.90;;;;;;5075057;28;20459;-56
2022/02/20 06:33:18;;;;;;;20.60;6.15;;;8.40;99.90;;;;;;5074995;28;20028;-56
2022/02/20 06:35:44;;;;;;;31.85;6.78;;;8.30;99.90;;;;;;5075143;28;20089;-56
2022/02/20 06:38:09;;;;;;;21.35;5.78;;;8.40;99.90;;;;;;5074530;28;20033;-55
2022/02/20 06:40:36;;;;;;;25.60;6.28;;;8.30;99.90;;;;;;5074856;28;20021;-56
2022/02/20 06:43:01;;;;;;;25.10;6.20;;;8.30;99.90;;;;;;5075001;28;20336;-58
2022/02/20 06:45:27;;;;;;;16.88;4.45;;;8.40;99.90;;;;;;5074932;28;20020;-58
2022/02/20 06:47:53;;;;;;;28.08;7.07;;;8.40;99.90;;;;;;5073721;28;20056;-58
2022/02/20 06:50:18;;;;;;;26.88;7.30;;;8.40;99.90;;;;;;5074728;28;20029;-58
2022/02/20 06:52:44;;;;;;;27.98;7.35;;;8.40;99.90;;;;;;5073794;28;20089;-58
2022/02/20 06:55:12;;;;;;;23.60;7.88;;;8.40;99.90;;;;;;5074140;28;20025;-58
2022/02/20 06:57:39;;;;;;;30.27;8.60;;;8.40;99.90;;;;;;5074050;28;20029;-58
2022/02/20 07:00:10;;;;;;;31.05;10.38;;;8.40;99.90;;;;;;5074241;28;20133;-58
2022/02/20 07:02:39;;;;;;;33.13;10.48;;;8.40;99.90;;;;;;5072919;28;20016;-59
2022/02/20 07:05:06;;;;;;;14.30;5.82;;;8.40;99.90;;;;;;5073745;28;20070;-61
2022/02/20 07:07:32;;;;;;;19.70;6.60;;;8.40;99.90;;;;;;5073639;28;20020;-62
2022/02/20 07:09:58;;;;;;;11.80;5.78;;;8.50;99.90;;;;;;5074427;28;20024;-63
2022/02/20 07:12:24;;;;;;;28.55;9.88;;;8.50;99.90;;;;;;5074624;28;20031;-63
2022/02/20 07:14:49;;;;;;;20.10;7.65;;;8.50;99.90;;;;;;5075057;28;20067;-62
2022/02/20 07:17:15;;;;;;;31.63;9.43;;;8.50;99.90;;;;;;5073578;28;20059;-64
2022/02/20 07:19:41;;;;;;;27.83;9.13;;;8.50;99.90;;;;;;5074443;28;20033;-63
2022/02/20 07:22:06;;;;;;;27.77;9.77;;;8.60;99.90;;;;;;5073579;28;20553;-63
2022/02/20 07:24:32;;;;;;;28.05;10.25;;;8.60;99.90;;;;;;5072934;28;20031;-62
2022/02/20 07:26:58;;;;;;;23.65;9.05;;;8.70;99.90;;;;;;5074199;28;20035;-65
2022/02/20 07:29:23;;;;;;;30.33;10.45;;;8.70;99.90;;;;;;5073556;28;20068;-63
2022/02/20 07:31:49;;;;;;;28.30;9.75;;;8.70;99.90;;;;;;5074157;28;20039;-63
2022/02/20 07:34:15;;;;;;;18.58;9.60;;;8.70;99.90;;;;;;5074213;28;20504;-63
2022/02/20 07:36:43;;;;;;;23.25;8.85;;;8.70;99.90;;;;;;5074003;28;20032;-62
2022/02/20 07:39:10;;;;;;;31.88;10.32;;;8.70;99.90;;;;;;5073176;28;20024;-63
2022/02/20 07:41:36;;;;;;;31.70;10.25;;;8.70;99.90;;;;;;5074137;28;20500;-62
2022/02/20 07:44:03;;;;;;;17.52;7.47;;;8.70;99.90;;;;;;5074080;28;20481;-62
2022/02/20 07:46:29;;;;;;;27.35;7.93;;;8.70;99.90;;;;;;5073489;28;20040;-60
2022/02/20 07:48:57;;;;;;;15.35;6.95;;;8.70;99.90;;;;;;5073935;28;20117;-60
2022/02/20 07:51:24;;;;;;;19.98;7.03;;;8.70;99.90;;;;;;5073915;28;20021;-61
2022/02/20 07:53:50;;;;;;;16.70;5.72;;;8.70;99.90;;;;;;5074322;28;20382;-61
2022/02/20 07:56:16;;;;;;;14.38;5.47;;;8.70;99.90;;;;;;5073810;28;20657;-63
2022/02/20 07:58:43;;;;;;;23.02;7.47;;;8.70;99.90;;;;;;5074188;28;20096;-62
2022/02/20 08:01:10;;;;;;;20.30;7.63;;;8.70;99.90;;;;;;5074002;28;20046;-63
2022/02/20 08:03:36;;;;;;;21.80;6.10;;;8.70;99.90;;;;;;5073713;28;20074;-63
2022/02/20 08:06:03;;;;;;;17.80;6.28;;;8.80;99.90;;;;;;5073540;28;20021;-63
2022/02/20 08:08:29;;;;;;;19.13;7.00;;;8.80;99.90;;;;;;5072140;28;20074;-62
2022/02/20 08:10:56;;;;;;;13.00;4.80;;;8.80;99.90;;;;;;5073519;28;20107;-61
2022/02/20 08:13:21;;;;;;;13.98;6.57;;;8.90;99.90;;;;;;5072678;28;20078;-60
2022/02/20 08:15:47;;;;;;;20.75;7.00;;;8.90;99.90;;;;;;5072153;28;20028;-60
2022/02/20 08:18:12;;;;;;;21.35;7.68;;;8.90;99.90;;;;;;5072609;28;20390;-61
2022/02/20 08:20:40;;;;;;;20.40;7.32;;;8.90;99.90;;;;;;5072657;28;20065;-60
2022/02/20 08:23:06;;;;;;;15.30;6.13;;;8.90;99.90;;;;;;5072406;28;20074;-59
2022/02/20 08:25:32;;;;;;;21.38;6.78;;;9.00;99.90;;;;;;5073247;28;20115;-59
2022/02/20 08:27:58;;;;;;;18.27;6.47;;;9.00;99.90;;;;;;5072682;28;20500;-59
2022/02/20 08:30:23;;;;;;;18.92;6.78;;;9.00;99.90;;;;;;5072553;28;20059;-59
2022/02/20 08:32:49;;;;;;;19.63;6.07;;;9.10;99.90;;;;;;5072959;28;20385;-59
2022/02/20 08:35:15;;;;;;;15.48;6.03;;;9.10;99.90;;;;;;5071015;28;20033;-59
2022/02/20 08:37:43;;;;;;;17.98;4.68;;;9.20;99.90;;;;;;5072782;28;20035;-59
2022/02/20 08:40:10;;;;;;;22.65;6.25;;;9.30;99.90;;;;;;5072341;28;20039;-58
2022/02/20 08:42:36;;;;;;;22.88;6.43;;;9.30;99.90;;;;;;5072211;28;20013;-58
2022/02/20 08:45:02;;;;;;;28.15;6.35;;;9.40;99.90;;;;;;5072342;28;20066;-58
2022/02/20 08:47:28;;;;;;;18.70;5.90;;;9.40;99.90;;;;;;5072356;28;20106;-58
2022/02/20 08:49:54;;;;;;;18.35;5.63;;;9.50;99.90;;;;;;5072611;28;20103;-57
2022/02/20 08:52:21;;;;;;;20.85;5.30;;;9.50;99.90;;;;;;5072358;28;20095;-57
2022/02/20 08:54:49;;;;;;;22.70;5.65;;;9.50;99.90;;;;;;5072451;28;20100;-58
2022/02/20 08:57:15;;;;;;;23.65;5.85;;;9.40;99.90;;;;;;5072072;28;20031;-58
2022/02/20 08:59:40;;;;;;;27.42;7.00;;;9.40;99.90;;;;;;5072193;28;20021;-58
2022/02/20 09:02:07;;;;;;;26.27;7.50;;;9.40;99.90;;;;;;5070674;28;20100;-58
2022/02/20 09:04:33;;;;;;;19.92;6.75;;;9.40;99.90;;;;;;5071650;28;20020;-58
2022/02/20 09:06:59;;;;;;;23.65;6.93;;;9.40;99.90;;;;;;5072265;28;20116;-58
2022/02/20 09:09:24;;;;;;;22.10;6.40;;;9.30;99.90;;;;;;5071914;28;20036;-58
2022/02/20 09:11:50;;;;;;;24.45;6.07;;;9.30;99.90;;;;;;5072161;28;20029;-58
2022/02/20 09:14:16;;;;;;;22.52;5.28;;;9.30;99.90;;;;;;5072152;28;20036;-58
2022/02/20 09:16:42;;;;;;;27.77;5.15;;;9.30;99.90;;;;;;5071957;28;20033;-60
2022/02/20 09:19:07;;;;;;;11.13;3.35;;;9.30;99.90;;;;;;5071719;28;20393;-60
2022/02/20 09:21:34;;;;;;;24.13;4.88;;;9.40;99.90;;;;;;5071051;28;20032;-60
2022/02/20 09:24:00;;;;;;;21.08;5.40;;;9.40;99.90;;;;;;5071838;28;20017;-60
2022/02/20 09:26:26;;;;;;;34.38;6.70;;;9.40;99.90;;;;;;5074479;28;20499;-59
2022/02/20 09:28:51;;;;;;;17.52;3.53;;;9.50;99.90;;;;;;5071964;28;20044;-59
2022/02/20 09:31:17;;;;;;;22.88;5.35;;;9.50;99.90;;;;;;5071419;28;20451;-60
2022/02/20 09:33:43;;;;;;;25.73;4.47;;;9.60;99.90;;;;;;5072248;28;20517;-59
2022/02/20 09:36:09;;;;;;;20.45;5.75;;;9.60;99.90;;;;;;5072375;28;20040;-59
2022/02/20 09:38:36;;;;;;;24.25;5.20;;;9.60;99.90;;;;;;5071769;28;20385;-58
2022/02/20 09:41:05;;;;;;;16.73;4.50;;;9.60;99.90;;;;;;5072469;28;20542;-58
2022/02/20 09:43:36;;;;;;;24.08;5.20;;;9.70;99.90;;;;;;5071786;28;20466;-58
2022/02/20 09:46:02;;;;;;;23.40;4.75;;;9.80;99.90;;;;;;5071625;28;20394;-59
2022/02/20 09:48:28;;;;;;;25.65;4.65;;;9.80;99.90;;;;;;5072107;28;20020;-57
2022/02/20 09:50:54;;;;;;;24.55;6.45;;;9.80;99.90;;;;;;5072161;28;20028;-57
2022/02/20 09:53:20;;;;;;;27.50;4.97;;;9.80;99.90;;;;;;5072062;28;20099;-57
2022/02/20 09:55:47;;;;;;;23.73;5.00;;;9.90;99.90;;;;;;5072223;28;20025;-57
2022/02/20 09:58:14;;;;;;;32.10;5.75;;;9.90;99.90;;;;;;5072084;28;20183;-58
2022/02/20 10:00:54;;;;;;;28.75;6.80;;;9.90;99.90;;;;;;5071582;28;20268;-57
2022/02/20 10:03:47;;;;;;;33.58;6.00;;;9.90;99.90;;;;;;5071488;28;20149;-58
2022/02/20 10:06:26;;;;;;;17.10;3.95;;;10.00;99.90;;;;;;5068826;28;20035;-58
2022/02/20 10:08:54;;;;;;;24.48;4.13;;;9.90;99.90;;;;;;5071452;28;20475;-58
2022/02/20 10:11:24;;;;;;;23.48;4.57;;;10.00;99.90;;;;;;5071089;28;20508;-59
2022/02/20 10:13:52;;;;;;;32.55;5.97;;;9.90;99.90;;;;;;5071685;28;20081;-58
2022/02/20 10:16:27;;;;;;;23.95;6.13;;;10.00;99.90;;;;;;5071549;28;20063;-59
2022/02/20 10:18:56;;;;;;;25.30;5.53;;;10.00;99.90;;;;;;5070015;28;20095;-58
2022/02/20 10:21:25;;;;;;;21.40;4.82;;;10.00;99.90;;;;;;5070996;28;20082;-58
2022/02/20 10:23:53;;;;;;;24.88;5.43;;;10.00;99.90;;;;;;5070182;28;20445;-57
2022/02/20 10:26:21;;;;;;;30.75;5.00;;;10.00;99.90;;;;;;5070434;28;20042;-57
2022/02/20 10:29:08;;;;;;;21.25;4.07;;;10.00;99.90;;;;;;5070622;28;20428;-57
2022/02/20 10:31:54;;;;;;;22.38;5.10;;;10.00;99.90;;;;;;5071048;28;20037;-56
2022/02/20 10:34:25;;;;;;;31.33;5.15;;;10.00;99.90;;;;;;5071318;28;20524;-56
2022/02/20 10:36:55;;;;;;;22.50;4.57;;;10.00;99.90;;;;;;5071549;28;20107;-56
2022/02/20 10:39:21;;;;;;;29.52;6.13;;;10.10;99.90;;;;;;5071254;28;20021;-56
2022/02/20 10:41:47;;;;;;;31.88;6.10;;;10.10;99.90;;;;;;5074573;28;20033;-55
2022/02/20 10:44:13;;;;;;;32.42;3.92;;;10.10;99.90;;;;;;5074509;28;20104;-55
2022/02/20 10:46:39;;;;;;;32.83;5.72;;;10.20;99.90;;;;;;5074297;28;20103;-56
2022/02/20 10:49:05;;;;;;;27.45;5.63;;;10.20;99.90;;;;;;5074556;28;20025;-55
2022/02/20 10:51:45;;;;;;;34.90;6.15;;;10.20;99.90;;;;;;5074483;28;20025;-56
2022/02/20 10:54:10;;;;;;;34.25;5.53;;;10.20;99.90;;;;;;5073869;28;20413;-56
2022/02/20 10:56:44;;;;;;;32.78;4.80;;;10.30;99.90;;;;;;5074868;28;20032;-59
2022/02/20 10:59:10;;;;;;;40.88;6.43;;;10.30;99.90;;;;;;5075564;28;20036;-60
2022/02/20 11:01:36;;;;;;;38.40;7.35;;;10.30;99.90;;;;;;5075100;28;20074;-61
2022/02/20 11:04:05;;;;;;;45.08;6.82;;;10.40;99.90;;;;;;5073661;28;20074;-61
2022/02/20 11:06:34;;;;;;;42.00;7.38;;;10.40;99.90;;;;;;5072453;28;20481;-60
2022/02/20 11:09:01;;;;;;;39.20;7.25;;;10.40;99.90;;;;;;5073581;28;20042;-60
2022/02/20 11:11:42;;;;;;;37.65;6.50;;;10.30;99.90;;;;;;5073272;28;20070;-59
2022/02/20 11:14:12;;;;;;;17.40;3.65;;;10.40;99.90;;;;;;5074114;28;20052;-59
2022/02/20 11:16:55;;;;;;;34.65;5.85;;;10.60;99.90;;;;;;5073739;28;20032;-58
2022/02/20 11:19:23;;;;;;;38.65;6.95;;;10.70;99.90;;;;;;5073992;28;20024;-58
2022/02/20 11:21:53;;;;;;;40.92;6.78;;;10.70;99.90;;;;;;5073423;28;20417;-58
2022/02/20 11:24:19;;;;;;;39.20;6.57;;;10.60;99.90;;;;;;5073058;28;20017;-60
2022/02/20 11:26:46;;;;;;;32.42;6.40;;;10.60;99.90;;;;;;5073231;28;20031;-60
2022/02/20 11:29:13;;;;;;;20.40;3.72;;;10.60;99.90;;;;;;5073090;28;20021;-60
2022/02/20 11:31:41;;;;;;;38.10;7.05;;;10.60;99.90;;;;;;5074064;28;20048;-60
2022/02/20 11:34:08;;;;;;;45.92;7.40;;;10.60;99.90;;;;;;5074387;28;20127;-61
2022/02/20 11:36:34;;;;;;;40.17;6.38;;;10.60;99.90;;;;;;5072156;28;20025;-61
2022/02/20 11:39:11;;;;;;;33.90;5.45;;;10.50;99.90;;;;;;5073191;28;20027;-61
2022/02/20 11:41:39;;;;;;;35.75;6.70;;;10.50;99.90;;;;;;5072777;28;20064;-61
2022/02/20 11:44:19;;;;;;;39.13;6.43;;;10.50;99.90;;;;;;5073095;28;20017;-61
2022/02/20 11:46:53;;;;;;;40.15;7.47;;;10.50;99.90;;;;;;5073487;28;20025;-62
2022/02/20 11:49:26;;;;;;;44.85;7.22;;;10.50;99.90;;;;;;5073525;28;20116;-60
2022/02/20 11:52:11;;;;;;;40.28;6.55;;;10.50;99.90;;;;;;5071977;28;20031;-60
2022/02/20 11:54:39;;;;;;;47.67;6.78;;;10.50;99.90;;;;;;5073333;28;20499;-60
2022/02/20 11:57:18;;;;;;;23.35;4.22;;;10.50;99.90;;;;;;5073070;28;20025;-59
2022/02/20 12:00:03;;;;;;;49.10;7.55;;;10.50;99.90;;;;;;5073068;28;20028;-59
2022/02/20 12:02:30;;;;;;;28.42;4.28;;;10.70;99.90;;;;;;5072926;28;20363;-59
2022/02/20 12:04:55;;;;;;;29.15;5.00;;;10.70;99.90;;;;;;5072148;28;20025;-59
2022/02/20 12:07:46;;;;;;;23.65;4.30;;;10.80;99.90;;;;;;5073033;28;20009;-58
2022/02/20 12:10:18;;;;;;;42.85;6.57;;;10.80;99.90;;;;;;5071959;28;20111;-59
2022/02/20 12:12:48;;;;;;;35.55;6.53;;;10.80;99.90;;;;;;5072916;28;20397;-57
2022/02/20 12:15:29;;;;;;;32.33;5.72;;;10.90;99.90;;;;;;5072996;28;20048;-59
2022/02/20 12:18:02;;;;;;;37.78;6.30;;;11.00;99.90;;;;;;5073392;28;20126;-58
2022/02/20 12:20:49;;;;;;;27.23;5.10;;;11.10;99.90;;;;;;5073068;28;20030;-58
2022/02/20 12:23:30;;;;;;;26.52;4.63;;;11.10;99.90;;;;;;5072220;28;20475;-57
2022/02/20 12:26:01;;;;;;;23.35;4.25;;;11.10;99.90;;;;;;5072597;28;20044;-58
2022/02/20 12:28:35;;;;;;;39.38;7.22;;;11.10;99.90;;;;;;5072767;28;20096;-57
2022/02/20 12:31:17;;;;;;;38.20;6.05;;;11.20;99.90;;;;;;5072231;28;20417;-56
2022/02/20 12:33:48;;;;;;;55.55;8.05;;;11.10;99.90;;;;;;5072315;28;20559;-56
2022/02/20 12:36:24;;;;;;;42.83;7.03;;;11.10;99.90;;;;;;5072048;28;20460;-56
2022/02/20 12:38:52;;;;;;;42.75;6.85;;;11.00;99.90;;;;;;5072246;28;20104;-57
2022/02/20 12:41:18;;;;;;;37.22;6.82;;;11.00;99.90;;;;;;5072134;28;20424;-56
2022/02/20 12:43:53;;;;;;;27.52;5.93;;;11.10;99.90;;;;;;5071958;28;20033;-56
2022/02/20 12:46:20;;;;;;;37.75;6.22;;;11.10;99.90;;;;;;5071826;28;20066;-57